sensor_id;sensor_type;location;lat;lon;timestamp;P1;durP1;ratioP1;P2;durP2;ratioP2
32826;SDS011;51059;42.058;27.986;2024-03-02T00:00:22;47.73;;;21.70;;
32826;SDS011;51059;42.058;27.986;2024-03-02T00:02:50;45.77;;;22.03;;
32826;SDS011;51059;42.058;27.986;2024-03-02T00:05:19;43.57;;;20.57;;
32826;SDS011;51059;42.058;27.986;2024-03-02T00:07:53;55.10;;;21.10;;
32826;SDS011;51059;42.058;27.986;2024-03-02T00:10:22;46.57;;;21.00;;
32826;SDS011;51059;42.058;27.986;2024-03-02T00:12:54;51.67;;;21.37;;
32826;SDS011;51059;42.058;27.986;2024-03-02T00:15:41;50.37;;;21.27;;
32826;SDS011;51059;42.058;27.986;2024-03-02T00:18:33;45.43;;;21.80;;
32826;SDS011;51059;42.058;27.986;2024-03-02T00:21:01;42.40;;;20.93;;
32826;SDS011;51059;42.058;27.986;2024-03-02T00:23:31;47.27;;;20.57;;
32826;SDS011;51059;42.058;27.986;2024-03-02T00:25:57;50.07;;;21.13;;
32826;SDS011;51059;42.058;27.986;2024-03-02T00:31:04;45.30;;;21.27;;
32826;SDS011;51059;42.058;27.986;2024-03-02T00:33:47;42.13;;;20.43;;
32826;SDS011;51059;42.058;27.986;2024-03-02T00:36:14;46.83;;;21.00;;
32826;SDS011;51059;42.058;27.986;2024-03-02T00:38:48;41.90;;;20.43;;
32826;SDS011;51059;42.058;27.986;2024-03-02T00:41:15;43.53;;;21.03;;
32826;SDS011;51059;42.058;27.986;2024-03-02T00:43:57;38.80;;;20.00;;
32826;SDS011;51059;42.058;27.986;2024-03-02T00:46:23;50.07;;;21.23;;
32826;SDS011;51059;42.058;27.986;2024-03-02T00:48:56;45.67;;;21.53;;
32826;SDS011;51059;42.058;27.986;2024-03-02T00:51:23;44.90;;;21.23;;
32826;SDS011;51059;42.058;27.986;2024-03-02T00:53:52;49.50;;;21.73;;
32826;SDS011;51059;42.058;27.986;2024-03-02T00:56:22;49.63;;;20.97;;
32826;SDS011;51059;42.058;27.986;2024-03-02T00:58:49;50.23;;;22.53;;
32826;SDS011;51059;42.058;27.986;2024-03-02T01:01:15;49.27;;;22.57;;
32826;SDS011;51059;42.058;27.986;2024-03-02T01:03:42;46.17;;;21.97;;
32826;SDS011;51059;42.058;27.986;2024-03-02T01:06:09;50.87;;;21.23;;
32826;SDS011;51059;42.058;27.986;2024-03-02T01:08:36;42.17;;;21.20;;
32826;SDS011;51059;42.058;27.986;2024-03-02T01:11:02;48.97;;;20.97;;
32826;SDS011;51059;42.058;27.986;2024-03-02T01:13:29;40.93;;;21.00;;
32826;SDS011;51059;42.058;27.986;2024-03-02T01:15:55;50.37;;;22.10;;
32826;SDS011;51059;42.058;27.986;2024-03-02T01:18:21;55.57;;;22.90;;
32826;SDS011;51059;42.058;27.986;2024-03-02T01:20:48;43.00;;;21.80;;
32826;SDS011;51059;42.058;27.986;2024-03-02T01:23:17;46.73;;;21.80;;
32826;SDS011;51059;42.058;27.986;2024-03-02T01:25:45;43.80;;;21.53;;
32826;SDS011;51059;42.058;27.986;2024-03-02T01:28:12;51.20;;;21.93;;
32826;SDS011;51059;42.058;27.986;2024-03-02T01:30:38;42.13;;;21.83;;
32826;SDS011;51059;42.058;27.986;2024-03-02T01:33:04;42.57;;;21.43;;
32826;SDS011;51059;42.058;27.986;2024-03-02T01:35:31;45.40;;;21.00;;
32826;SDS011;51059;42.058;27.986;2024-03-02T01:37:57;44.13;;;21.00;;
32826;SDS011;51059;42.058;27.986;2024-03-02T01:40:23;46.87;;;21.77;;
32826;SDS011;51059;42.058;27.986;2024-03-02T01:42:53;45.87;;;22.10;;
32826;SDS011;51059;42.058;27.986;2024-03-02T01:45:21;48.77;;;23.20;;
32826;SDS011;51059;42.058;27.986;2024-03-02T01:47:47;49.40;;;22.23;;
32826;SDS011;51059;42.058;27.986;2024-03-02T01:50:13;46.90;;;22.20;;
32826;SDS011;51059;42.058;27.986;2024-03-02T01:52:39;46.57;;;21.90;;
32826;SDS011;51059;42.058;27.986;2024-03-02T01:55:07;50.13;;;22.77;;
32826;SDS011;51059;42.058;27.986;2024-03-02T01:57:33;44.23;;;22.13;;
32826;SDS011;51059;42.058;27.986;2024-03-02T02:00:00;53.50;;;22.13;;
32826;SDS011;51059;42.058;27.986;2024-03-02T02:02:26;46.27;;;21.93;;
32826;SDS011;51059;42.058;27.986;2024-03-02T02:04:52;47.20;;;22.03;;
32826;SDS011;51059;42.058;27.986;2024-03-02T02:07:18;50.70;;;21.30;;
32826;SDS011;51059;42.058;27.986;2024-03-02T02:09:44;43.37;;;21.10;;
32826;SDS011;51059;42.058;27.986;2024-03-02T02:12:10;44.20;;;21.87;;
32826;SDS011;51059;42.058;27.986;2024-03-02T02:14:36;45.60;;;21.37;;
32826;SDS011;51059;42.058;27.986;2024-03-02T02:17:03;43.20;;;20.13;;
32826;SDS011;51059;42.058;27.986;2024-03-02T02:19:29;53.90;;;23.70;;
32826;SDS011;51059;42.058;27.986;2024-03-02T02:21:55;50.63;;;22.20;;
32826;SDS011;51059;42.058;27.986;2024-03-02T02:24:21;46.03;;;22.40;;
32826;SDS011;51059;42.058;27.986;2024-03-02T02:26:47;45.73;;;21.83;;
32826;SDS011;51059;42.058;27.986;2024-03-02T02:29:14;45.37;;;21.57;;
32826;SDS011;51059;42.058;27.986;2024-03-02T02:31:40;41.60;;;21.70;;
32826;SDS011;51059;42.058;27.986;2024-03-02T02:34:06;51.97;;;22.03;;
32826;SDS011;51059;42.058;27.986;2024-03-02T02:36:33;44.50;;;22.07;;
32826;SDS011;51059;42.058;27.986;2024-03-02T02:39:02;44.00;;;21.43;;
32826;SDS011;51059;42.058;27.986;2024-03-02T02:41:32;46.10;;;23.03;;
32826;SDS011;51059;42.058;27.986;2024-03-02T02:43:58;38.97;;;21.63;;
32826;SDS011;51059;42.058;27.986;2024-03-02T02:46:24;43.20;;;21.60;;
32826;SDS011;51059;42.058;27.986;2024-03-02T02:48:50;44.67;;;22.53;;
32826;SDS011;51059;42.058;27.986;2024-03-02T02:51:18;46.20;;;21.87;;
32826;SDS011;51059;42.058;27.986;2024-03-02T02:53:44;45.40;;;22.17;;
32826;SDS011;51059;42.058;27.986;2024-03-02T02:56:10;45.67;;;22.63;;
32826;SDS011;51059;42.058;27.986;2024-03-02T02:58:36;47.17;;;22.43;;
32826;SDS011;51059;42.058;27.986;2024-03-02T03:01:02;60.50;;;23.90;;
32826;SDS011;51059;42.058;27.986;2024-03-02T03:03:29;47.30;;;22.90;;
32826;SDS011;51059;42.058;27.986;2024-03-02T03:05:56;48.63;;;22.73;;
32826;SDS011;51059;42.058;27.986;2024-03-02T03:08:22;48.50;;;21.90;;
32826;SDS011;51059;42.058;27.986;2024-03-02T03:10:49;40.47;;;22.23;;
32826;SDS011;51059;42.058;27.986;2024-03-02T03:13:15;45.40;;;21.97;;
32826;SDS011;51059;42.058;27.986;2024-03-02T03:15:40;50.10;;;22.17;;
32826;SDS011;51059;42.058;27.986;2024-03-02T03:18:06;43.17;;;21.37;;
32826;SDS011;51059;42.058;27.986;2024-03-02T03:20:38;38.53;;;22.57;;
32826;SDS011;51059;42.058;27.986;2024-03-02T03:23:04;41.03;;;21.43;;
32826;SDS011;51059;42.058;27.986;2024-03-02T03:25:30;43.93;;;22.10;;
32826;SDS011;51059;42.058;27.986;2024-03-02T03:27:56;40.10;;;21.63;;
32826;SDS011;51059;42.058;27.986;2024-03-02T03:30:23;40.80;;;22.27;;
32826;SDS011;51059;42.058;27.986;2024-03-02T03:32:49;49.67;;;23.17;;
32826;SDS011;51059;42.058;27.986;2024-03-02T03:35:15;45.40;;;22.83;;
32826;SDS011;51059;42.058;27.986;2024-03-02T03:37:41;37.77;;;21.47;;
32826;SDS011;51059;42.058;27.986;2024-03-02T03:40:07;39.63;;;22.17;;
32826;SDS011;51059;42.058;27.986;2024-03-02T03:42:36;42.00;;;22.83;;
32826;SDS011;51059;42.058;27.986;2024-03-02T03:45:03;39.37;;;22.23;;
32826;SDS011;51059;42.058;27.986;2024-03-02T03:47:29;42.30;;;23.13;;
32826;SDS011;51059;42.058;27.986;2024-03-02T03:49:57;42.57;;;22.47;;
32826;SDS011;51059;42.058;27.986;2024-03-02T03:52:23;47.47;;;22.27;;
32826;SDS011;51059;42.058;27.986;2024-03-02T03:54:49;39.00;;;22.20;;
32826;SDS011;51059;42.058;27.986;2024-03-02T03:57:15;43.77;;;22.80;;
32826;SDS011;51059;42.058;27.986;2024-03-02T03:59:41;44.37;;;23.20;;
32826;SDS011;51059;42.058;27.986;2024-03-02T04:02:08;41.50;;;23.43;;
32826;SDS011;51059;42.058;27.986;2024-03-02T04:04:34;37.17;;;23.17;;
32826;SDS011;51059;42.058;27.986;2024-03-02T04:07:01;42.93;;;23.00;;
32826;SDS011;51059;42.058;27.986;2024-03-02T04:09:27;56.37;;;24.17;;
32826;SDS011;51059;42.058;27.986;2024-03-02T04:11:53;53.67;;;25.23;;
32826;SDS011;51059;42.058;27.986;2024-03-02T04:14:19;41.47;;;24.00;;
32826;SDS011;51059;42.058;27.986;2024-03-02T04:16:46;41.97;;;23.50;;
32826;SDS011;51059;42.058;27.986;2024-03-02T04:19:12;43.20;;;23.03;;
32826;SDS011;51059;42.058;27.986;2024-03-02T04:21:38;43.67;;;23.80;;
32826;SDS011;51059;42.058;27.986;2024-03-02T04:24:04;42.50;;;22.77;;
32826;SDS011;51059;42.058;27.986;2024-03-02T04:26:30;47.63;;;25.23;;
32826;SDS011;51059;42.058;27.986;2024-03-02T04:28:55;46.10;;;24.70;;
32826;SDS011;51059;42.058;27.986;2024-03-02T04:31:21;46.23;;;24.27;;
32826;SDS011;51059;42.058;27.986;2024-03-02T04:33:47;48.97;;;25.13;;
32826;SDS011;51059;42.058;27.986;2024-03-02T04:36:13;46.30;;;26.00;;
32826;SDS011;51059;42.058;27.986;2024-03-02T04:38:40;50.53;;;25.10;;
32826;SDS011;51059;42.058;27.986;2024-03-02T04:41:06;45.03;;;24.53;;
32826;SDS011;51059;42.058;27.986;2024-03-02T04:43:33;47.80;;;25.23;;
32826;SDS011;51059;42.058;27.986;2024-03-02T04:46:00;45.00;;;25.00;;
32826;SDS011;51059;42.058;27.986;2024-03-02T04:48:27;46.33;;;25.90;;
32826;SDS011;51059;42.058;27.986;2024-03-02T04:50:52;48.17;;;25.10;;
32826;SDS011;51059;42.058;27.986;2024-03-02T04:53:18;47.13;;;25.30;;
32826;SDS011;51059;42.058;27.986;2024-03-02T04:55:44;44.53;;;24.83;;
32826;SDS011;51059;42.058;27.986;2024-03-02T04:58:19;47.83;;;25.23;;
32826;SDS011;51059;42.058;27.986;2024-03-02T05:00:45;50.07;;;25.07;;
32826;SDS011;51059;42.058;27.986;2024-03-02T05:03:12;55.80;;;26.13;;
32826;SDS011;51059;42.058;27.986;2024-03-02T05:05:39;52.00;;;26.13;;
32826;SDS011;51059;42.058;27.986;2024-03-02T05:08:05;52.73;;;25.70;;
32826;SDS011;51059;42.058;27.986;2024-03-02T05:10:32;47.20;;;25.37;;
32826;SDS011;51059;42.058;27.986;2024-03-02T05:12:57;47.73;;;26.07;;
32826;SDS011;51059;42.058;27.986;2024-03-02T05:15:25;48.07;;;25.60;;
32826;SDS011;51059;42.058;27.986;2024-03-02T05:17:51;44.33;;;25.43;;
32826;SDS011;51059;42.058;27.986;2024-03-02T05:20:18;44.90;;;24.70;;
32826;SDS011;51059;42.058;27.986;2024-03-02T05:22:44;43.53;;;24.67;;
32826;SDS011;51059;42.058;27.986;2024-03-02T05:25:10;39.40;;;23.80;;
32826;SDS011;51059;42.058;27.986;2024-03-02T05:27:36;42.20;;;24.83;;
32826;SDS011;51059;42.058;27.986;2024-03-02T05:30:02;41.67;;;24.07;;
32826;SDS011;51059;42.058;27.986;2024-03-02T05:32:27;43.00;;;24.93;;
32826;SDS011;51059;42.058;27.986;2024-03-02T05:34:54;41.37;;;23.97;;
32826;SDS011;51059;42.058;27.986;2024-03-02T05:37:20;34.60;;;24.17;;
32826;SDS011;51059;42.058;27.986;2024-03-02T05:39:46;41.27;;;24.97;;
32826;SDS011;51059;42.058;27.986;2024-03-02T05:42:12;50.50;;;26.37;;
32826;SDS011;51059;42.058;27.986;2024-03-02T05:44:37;48.20;;;25.67;;
32826;SDS011;51059;42.058;27.986;2024-03-02T05:47:03;46.80;;;25.93;;
32826;SDS011;51059;42.058;27.986;2024-03-02T05:49:30;54.03;;;27.07;;
32826;SDS011;51059;42.058;27.986;2024-03-02T05:51:56;53.67;;;24.97;;
32826;SDS011;51059;42.058;27.986;2024-03-02T05:54:22;52.80;;;26.13;;
32826;SDS011;51059;42.058;27.986;2024-03-02T05:56:48;53.80;;;26.10;;
32826;SDS011;51059;42.058;27.986;2024-03-02T05:59:14;51.60;;;25.57;;
32826;SDS011;51059;42.058;27.986;2024-03-02T06:01:45;58.37;;;27.47;;
32826;SDS011;51059;42.058;27.986;2024-03-02T06:04:12;55.33;;;26.40;;
32826;SDS011;51059;42.058;27.986;2024-03-02T06:06:38;55.60;;;27.43;;
32826;SDS011;51059;42.058;27.986;2024-03-02T06:09:05;49.77;;;26.40;;
32826;SDS011;51059;42.058;27.986;2024-03-02T06:16:36;57.70;;;28.47;;
32826;SDS011;51059;42.058;27.986;2024-03-02T06:19:02;64.80;;;28.57;;
32826;SDS011;51059;42.058;27.986;2024-03-02T06:21:28;55.07;;;27.43;;
32826;SDS011;51059;42.058;27.986;2024-03-02T06:23:54;52.57;;;27.20;;
32826;SDS011;51059;42.058;27.986;2024-03-02T06:26:20;46.77;;;25.43;;
32826;SDS011;51059;42.058;27.986;2024-03-02T06:28:46;44.37;;;24.60;;
32826;SDS011;51059;42.058;27.986;2024-03-02T06:31:12;49.30;;;24.40;;
32826;SDS011;51059;42.058;27.986;2024-03-02T06:33:38;47.00;;;25.10;;
32826;SDS011;51059;42.058;27.986;2024-03-02T06:36:04;48.00;;;25.57;;
32826;SDS011;51059;42.058;27.986;2024-03-02T06:38:34;42.70;;;25.10;;
32826;SDS011;51059;42.058;27.986;2024-03-02T06:41:00;44.87;;;24.37;;
32826;SDS011;51059;42.058;27.986;2024-03-02T06:43:26;47.73;;;25.00;;
32826;SDS011;51059;42.058;27.986;2024-03-02T06:45:52;58.43;;;23.77;;
32826;SDS011;51059;42.058;27.986;2024-03-02T06:48:18;50.50;;;24.50;;
32826;SDS011;51059;42.058;27.986;2024-03-02T06:50:48;43.30;;;24.37;;
32826;SDS011;51059;42.058;27.986;2024-03-02T06:53:15;47.23;;;23.80;;
32826;SDS011;51059;42.058;27.986;2024-03-02T06:55:45;50.30;;;25.07;;
32826;SDS011;51059;42.058;27.986;2024-03-02T06:58:13;49.80;;;24.33;;
32826;SDS011;51059;42.058;27.986;2024-03-02T07:00:40;52.43;;;25.60;;
32826;SDS011;51059;42.058;27.986;2024-03-02T07:03:06;55.67;;;26.23;;
32826;SDS011;51059;42.058;27.986;2024-03-02T07:05:32;57.37;;;26.47;;
32826;SDS011;51059;42.058;27.986;2024-03-02T07:07:58;55.37;;;26.83;;
32826;SDS011;51059;42.058;27.986;2024-03-02T07:10:25;52.23;;;23.67;;
32826;SDS011;51059;42.058;27.986;2024-03-02T07:12:51;44.10;;;22.30;;
32826;SDS011;51059;42.058;27.986;2024-03-02T07:15:16;42.43;;;21.50;;
32826;SDS011;51059;42.058;27.986;2024-03-02T07:18:09;38.83;;;21.10;;
32826;SDS011;51059;42.058;27.986;2024-03-02T07:20:35;41.43;;;21.00;;
32826;SDS011;51059;42.058;27.986;2024-03-02T07:23:00;39.17;;;20.67;;
32826;SDS011;51059;42.058;27.986;2024-03-02T07:25:26;41.70;;;20.97;;
32826;SDS011;51059;42.058;27.986;2024-03-02T07:27:53;43.00;;;21.67;;
32826;SDS011;51059;42.058;27.986;2024-03-02T07:30:19;44.33;;;21.87;;
32826;SDS011;51059;42.058;27.986;2024-03-02T07:32:45;40.37;;;20.70;;
32826;SDS011;51059;42.058;27.986;2024-03-02T07:35:15;38.27;;;19.87;;
32826;SDS011;51059;42.058;27.986;2024-03-02T07:37:41;40.70;;;21.03;;
32826;SDS011;51059;42.058;27.986;2024-03-02T07:40:08;45.60;;;21.53;;
32826;SDS011;51059;42.058;27.986;2024-03-02T07:42:37;42.10;;;21.00;;
32826;SDS011;51059;42.058;27.986;2024-03-02T07:45:05;37.70;;;21.27;;
32826;SDS011;51059;42.058;27.986;2024-03-02T07:47:33;40.50;;;21.53;;
32826;SDS011;51059;42.058;27.986;2024-03-02T07:49:59;41.63;;;22.10;;
32826;SDS011;51059;42.058;27.986;2024-03-02T07:52:25;43.60;;;21.73;;
32826;SDS011;51059;42.058;27.986;2024-03-02T07:54:51;44.93;;;21.27;;
32826;SDS011;51059;42.058;27.986;2024-03-02T07:57:17;48.13;;;21.77;;
32826;SDS011;51059;42.058;27.986;2024-03-02T07:59:43;40.63;;;21.10;;
32826;SDS011;51059;42.058;27.986;2024-03-02T08:02:10;43.23;;;20.07;;
32826;SDS011;51059;42.058;27.986;2024-03-02T08:04:35;41.97;;;21.00;;
32826;SDS011;51059;42.058;27.986;2024-03-02T08:07:02;41.07;;;20.97;;
32826;SDS011;51059;42.058;27.986;2024-03-02T08:09:28;38.63;;;18.70;;
32826;SDS011;51059;42.058;27.986;2024-03-02T08:11:54;39.87;;;19.10;;
32826;SDS011;51059;42.058;27.986;2024-03-02T08:14:19;45.23;;;20.97;;
32826;SDS011;51059;42.058;27.986;2024-03-02T08:16:45;39.67;;;19.93;;
32826;SDS011;51059;42.058;27.986;2024-03-02T08:19:11;40.40;;;19.80;;
32826;SDS011;51059;42.058;27.986;2024-03-02T08:21:37;40.47;;;20.37;;
32826;SDS011;51059;42.058;27.986;2024-03-02T08:24:04;40.23;;;18.63;;
32826;SDS011;51059;42.058;27.986;2024-03-02T08:26:30;41.27;;;19.10;;
32826;SDS011;51059;42.058;27.986;2024-03-02T08:28:57;36.77;;;19.60;;
32826;SDS011;51059;42.058;27.986;2024-03-02T08:31:24;40.33;;;18.73;;
32826;SDS011;51059;42.058;27.986;2024-03-02T08:33:50;39.13;;;19.60;;
32826;SDS011;51059;42.058;27.986;2024-03-02T08:36:15;46.63;;;18.90;;
32826;SDS011;51059;42.058;27.986;2024-03-02T08:38:42;38.90;;;18.57;;
32826;SDS011;51059;42.058;27.986;2024-03-02T08:41:09;40.17;;;17.43;;
32826;SDS011;51059;42.058;27.986;2024-03-02T08:43:38;37.97;;;17.67;;
32826;SDS011;51059;42.058;27.986;2024-03-02T08:46:04;39.80;;;18.40;;
32826;SDS011;51059;42.058;27.986;2024-03-02T08:48:30;48.97;;;19.60;;
32826;SDS011;51059;42.058;27.986;2024-03-02T08:50:56;44.30;;;18.90;;
32826;SDS011;51059;42.058;27.986;2024-03-02T08:53:22;42.50;;;19.13;;
32826;SDS011;51059;42.058;27.986;2024-03-02T08:55:48;33.20;;;17.87;;
32826;SDS011;51059;42.058;27.986;2024-03-02T08:58:14;36.80;;;18.10;;
32826;SDS011;51059;42.058;27.986;2024-03-02T09:00:40;34.33;;;17.17;;
32826;SDS011;51059;42.058;27.986;2024-03-02T09:03:07;34.20;;;17.27;;
32826;SDS011;51059;42.058;27.986;2024-03-02T09:05:33;41.70;;;18.00;;
32826;SDS011;51059;42.058;27.986;2024-03-02T09:07:59;42.27;;;17.73;;
32826;SDS011;51059;42.058;27.986;2024-03-02T09:10:25;45.03;;;17.87;;
32826;SDS011;51059;42.058;27.986;2024-03-02T09:12:51;36.90;;;17.00;;
32826;SDS011;51059;42.058;27.986;2024-03-02T09:15:16;37.37;;;17.27;;
32826;SDS011;51059;42.058;27.986;2024-03-02T09:17:43;44.70;;;17.83;;
32826;SDS011;51059;42.058;27.986;2024-03-02T09:20:10;37.83;;;17.50;;
32826;SDS011;51059;42.058;27.986;2024-03-02T09:22:37;37.93;;;17.40;;
32826;SDS011;51059;42.058;27.986;2024-03-02T09:25:03;41.33;;;17.73;;
32826;SDS011;51059;42.058;27.986;2024-03-02T09:27:29;38.67;;;16.20;;
32826;SDS011;51059;42.058;27.986;2024-03-02T09:29:56;34.00;;;16.03;;
32826;SDS011;51059;42.058;27.986;2024-03-02T09:32:22;35.23;;;15.80;;
32826;SDS011;51059;42.058;27.986;2024-03-02T09:34:48;30.77;;;14.57;;
32826;SDS011;51059;42.058;27.986;2024-03-02T09:37:14;33.63;;;15.07;;
32826;SDS011;51059;42.058;27.986;2024-03-02T09:39:42;38.10;;;16.40;;
32826;SDS011;51059;42.058;27.986;2024-03-02T09:42:10;38.70;;;15.07;;
32826;SDS011;51059;42.058;27.986;2024-03-02T09:44:36;32.20;;;14.60;;
32826;SDS011;51059;42.058;27.986;2024-03-02T09:47:02;29.73;;;14.27;;
32826;SDS011;51059;42.058;27.986;2024-03-02T09:49:28;36.70;;;14.37;;
32826;SDS011;51059;42.058;27.986;2024-03-02T09:51:54;34.60;;;14.97;;
32826;SDS011;51059;42.058;27.986;2024-03-02T09:54:21;40.30;;;15.53;;
32826;SDS011;51059;42.058;27.986;2024-03-02T09:56:47;32.13;;;14.37;;
32826;SDS011;51059;42.058;27.986;2024-03-02T09:59:13;28.40;;;13.80;;
32826;SDS011;51059;42.058;27.986;2024-03-02T10:02:01;33.40;;;14.20;;
32826;SDS011;51059;42.058;27.986;2024-03-02T10:04:28;34.43;;;14.57;;
32826;SDS011;51059;42.058;27.986;2024-03-02T10:07:09;31.97;;;14.20;;
32826;SDS011;51059;42.058;27.986;2024-03-02T10:09:39;28.83;;;13.60;;
32826;SDS011;51059;42.058;27.986;2024-03-02T10:12:07;31.53;;;14.23;;
32826;SDS011;51059;42.058;27.986;2024-03-02T10:14:34;38.03;;;14.37;;
32826;SDS011;51059;42.058;27.986;2024-03-02T10:17:04;27.87;;;13.20;;
32826;SDS011;51059;42.058;27.986;2024-03-02T10:19:32;30.67;;;13.83;;
32826;SDS011;51059;42.058;27.986;2024-03-02T10:22:00;32.20;;;14.27;;
32826;SDS011;51059;42.058;27.986;2024-03-02T10:24:28;36.47;;;14.67;;
32826;SDS011;51059;42.058;27.986;2024-03-02T10:27:07;34.63;;;15.00;;
32826;SDS011;51059;42.058;27.986;2024-03-02T10:29:39;36.53;;;14.10;;
32826;SDS011;51059;42.058;27.986;2024-03-02T10:32:07;33.23;;;13.67;;
32826;SDS011;51059;42.058;27.986;2024-03-02T10:34:35;35.73;;;14.17;;
32826;SDS011;51059;42.058;27.986;2024-03-02T10:37:01;31.53;;;14.73;;
32826;SDS011;51059;42.058;27.986;2024-03-02T10:39:28;35.60;;;14.67;;
32826;SDS011;51059;42.058;27.986;2024-03-02T10:41:55;30.47;;;13.60;;
32826;SDS011;51059;42.058;27.986;2024-03-02T10:44:22;30.33;;;13.73;;
32826;SDS011;51059;42.058;27.986;2024-03-02T10:46:54;33.73;;;14.13;;
32826;SDS011;51059;42.058;27.986;2024-03-02T10:49:22;37.60;;;15.47;;
32826;SDS011;51059;42.058;27.986;2024-03-02T10:51:49;36.90;;;15.13;;
32826;SDS011;51059;42.058;27.986;2024-03-02T10:54:16;34.43;;;14.00;;
32826;SDS011;51059;42.058;27.986;2024-03-02T10:56:44;37.03;;;14.27;;
32826;SDS011;51059;42.058;27.986;2024-03-02T10:59:28;34.43;;;14.20;;
32826;SDS011;51059;42.058;27.986;2024-03-02T11:01:59;31.40;;;13.97;;
32826;SDS011;51059;42.058;27.986;2024-03-02T11:04:26;39.80;;;14.80;;
32826;SDS011;51059;42.058;27.986;2024-03-02T11:07:02;32.93;;;14.33;;
32826;SDS011;51059;42.058;27.986;2024-03-02T11:09:41;28.70;;;14.10;;
32826;SDS011;51059;42.058;27.986;2024-03-02T11:15:17;37.50;;;14.57;;
32826;SDS011;51059;42.058;27.986;2024-03-02T11:17:46;35.63;;;14.50;;
32826;SDS011;51059;42.058;27.986;2024-03-02T11:20:13;33.00;;;13.70;;
32826;SDS011;51059;42.058;27.986;2024-03-02T11:22:40;30.83;;;13.93;;
32826;SDS011;51059;42.058;27.986;2024-03-02T11:25:06;34.47;;;13.83;;
32826;SDS011;51059;42.058;27.986;2024-03-02T11:33:03;34.27;;;14.97;;
32826;SDS011;51059;42.058;27.986;2024-03-02T11:35:36;35.53;;;14.57;;
32826;SDS011;51059;42.058;27.986;2024-03-02T11:38:03;29.90;;;13.40;;
32826;SDS011;51059;42.058;27.986;2024-03-02T11:40:30;33.10;;;13.57;;
32826;SDS011;51059;42.058;27.986;2024-03-02T11:42:56;31.93;;;13.73;;
32826;SDS011;51059;42.058;27.986;2024-03-02T11:45:24;33.43;;;14.10;;
32826;SDS011;51059;42.058;27.986;2024-03-02T11:47:52;36.73;;;13.57;;
32826;SDS011;51059;42.058;27.986;2024-03-02T11:50:36;32.37;;;13.70;;
32826;SDS011;51059;42.058;27.986;2024-03-02T11:53:06;32.67;;;13.83;;
32826;SDS011;51059;42.058;27.986;2024-03-02T11:55:37;27.90;;;12.73;;
32826;SDS011;51059;42.058;27.986;2024-03-02T11:58:05;32.03;;;13.57;;
32826;SDS011;51059;42.058;27.986;2024-03-02T12:00:31;31.73;;;12.63;;
32826;SDS011;51059;42.058;27.986;2024-03-02T12:03:04;27.63;;;13.03;;
32826;SDS011;51059;42.058;27.986;2024-03-02T12:05:30;24.70;;;12.27;;
32826;SDS011;51059;42.058;27.986;2024-03-02T12:07:59;26.57;;;12.40;;
32826;SDS011;51059;42.058;27.986;2024-03-02T12:10:27;31.67;;;12.80;;
32826;SDS011;51059;42.058;27.986;2024-03-02T12:12:58;29.40;;;12.30;;
32826;SDS011;51059;42.058;27.986;2024-03-02T12:15:28;29.20;;;13.03;;
32826;SDS011;51059;42.058;27.986;2024-03-02T12:17:57;27.33;;;12.87;;
32826;SDS011;51059;42.058;27.986;2024-03-02T12:20:25;37.70;;;13.00;;
32826;SDS011;51059;42.058;27.986;2024-03-02T12:22:53;24.97;;;12.30;;
32826;SDS011;51059;42.058;27.986;2024-03-02T12:25:22;32.13;;;12.90;;
32826;SDS011;51059;42.058;27.986;2024-03-02T12:27:50;32.53;;;12.73;;
32826;SDS011;51059;42.058;27.986;2024-03-02T12:30:19;31.67;;;12.53;;
32826;SDS011;51059;42.058;27.986;2024-03-02T12:32:46;30.10;;;12.90;;
32826;SDS011;51059;42.058;27.986;2024-03-02T12:35:13;27.33;;;12.63;;
32826;SDS011;51059;42.058;27.986;2024-03-02T12:37:43;25.40;;;11.67;;
32826;SDS011;51059;42.058;27.986;2024-03-02T12:40:10;27.03;;;12.60;;
32826;SDS011;51059;42.058;27.986;2024-03-02T12:42:39;27.27;;;11.90;;
32826;SDS011;51059;42.058;27.986;2024-03-02T12:45:07;27.87;;;12.70;;
32826;SDS011;51059;42.058;27.986;2024-03-02T12:47:34;29.13;;;12.23;;
32826;SDS011;51059;42.058;27.986;2024-03-02T12:50:01;31.80;;;12.97;;
32826;SDS011;51059;42.058;27.986;2024-03-02T12:52:29;24.57;;;11.67;;
32826;SDS011;51059;42.058;27.986;2024-03-02T12:54:55;28.03;;;12.13;;
32826;SDS011;51059;42.058;27.986;2024-03-02T12:57:27;26.93;;;12.70;;
32826;SDS011;51059;42.058;27.986;2024-03-02T13:00:02;30.40;;;12.27;;
32826;SDS011;51059;42.058;27.986;2024-03-02T13:02:39;30.57;;;11.80;;
32826;SDS011;51059;42.058;27.986;2024-03-02T13:05:06;25.30;;;11.93;;
32826;SDS011;51059;42.058;27.986;2024-03-02T13:07:41;28.23;;;13.17;;
32826;SDS011;51059;42.058;27.986;2024-03-02T13:10:08;35.47;;;13.50;;
32826;SDS011;51059;42.058;27.986;2024-03-02T13:12:35;29.57;;;12.30;;
32826;SDS011;51059;42.058;27.986;2024-03-02T13:15:02;29.17;;;13.07;;
32826;SDS011;51059;42.058;27.986;2024-03-02T13:17:29;32.03;;;11.90;;
32826;SDS011;51059;42.058;27.986;2024-03-02T13:19:55;25.80;;;12.60;;
32826;SDS011;51059;42.058;27.986;2024-03-02T13:22:23;24.23;;;12.20;;
32826;SDS011;51059;42.058;27.986;2024-03-02T13:24:52;26.00;;;12.50;;
32826;SDS011;51059;42.058;27.986;2024-03-02T13:27:19;26.27;;;12.47;;
32826;SDS011;51059;42.058;27.986;2024-03-02T13:29:46;29.10;;;13.10;;
32826;SDS011;51059;42.058;27.986;2024-03-02T13:32:15;26.83;;;12.23;;
32826;SDS011;51059;42.058;27.986;2024-03-02T13:34:42;27.97;;;12.67;;
32826;SDS011;51059;42.058;27.986;2024-03-02T13:37:08;28.53;;;12.43;;
32826;SDS011;51059;42.058;27.986;2024-03-02T13:39:35;27.20;;;12.37;;
32826;SDS011;51059;42.058;27.986;2024-03-02T13:42:11;28.23;;;12.37;;
32826;SDS011;51059;42.058;27.986;2024-03-02T13:44:40;26.47;;;13.07;;
32826;SDS011;51059;42.058;27.986;2024-03-02T13:47:12;30.93;;;13.50;;
32826;SDS011;51059;42.058;27.986;2024-03-02T13:49:38;28.50;;;12.43;;
32826;SDS011;51059;42.058;27.986;2024-03-02T13:52:09;26.90;;;13.47;;
32826;SDS011;51059;42.058;27.986;2024-03-02T13:54:44;27.20;;;12.73;;
32826;SDS011;51059;42.058;27.986;2024-03-02T13:57:11;31.57;;;13.80;;
32826;SDS011;51059;42.058;27.986;2024-03-02T13:59:37;27.37;;;13.50;;
32826;SDS011;51059;42.058;27.986;2024-03-02T14:02:07;23.80;;;12.53;;
32826;SDS011;51059;42.058;27.986;2024-03-02T14:04:34;31.03;;;13.27;;
32826;SDS011;51059;42.058;27.986;2024-03-02T14:07:00;23.57;;;12.90;;
32826;SDS011;51059;42.058;27.986;2024-03-02T14:09:27;33.03;;;14.10;;
32826;SDS011;51059;42.058;27.986;2024-03-02T14:11:53;32.77;;;14.87;;
32826;SDS011;51059;42.058;27.986;2024-03-02T14:14:19;31.93;;;14.77;;
32826;SDS011;51059;42.058;27.986;2024-03-02T14:16:45;38.70;;;14.13;;
32826;SDS011;51059;42.058;27.986;2024-03-02T14:19:12;32.80;;;14.37;;
32826;SDS011;51059;42.058;27.986;2024-03-02T14:21:39;29.97;;;14.07;;
32826;SDS011;51059;42.058;27.986;2024-03-02T14:24:05;34.53;;;14.03;;
32826;SDS011;51059;42.058;27.986;2024-03-02T14:26:32;26.50;;;14.07;;